sensor_id;sensor_type;location;lat;lon;timestamp;temperature;humidity
68719;DHT22;55696;52.138;5.444;2023-12-20T00:01:41;10.80;72.80
68719;DHT22;55696;52.138;5.444;2023-12-20T00:04:09;10.80;72.80
68719;DHT22;55696;52.138;5.444;2023-12-20T00:06:35;10.80;72.90
68719;DHT22;55696;52.138;5.444;2023-12-20T00:09:03;10.70;72.80
68719;DHT22;55696;52.138;5.444;2023-12-20T00:11:29;10.70;73.00
68719;DHT22;55696;52.138;5.444;2023-12-20T00:13:56;10.70;73.00
68719;DHT22;55696;52.138;5.444;2023-12-20T00:16:23;10.60;73.00
68719;DHT22;55696;52.138;5.444;2023-12-20T00:18:50;10.60;72.90
68719;DHT22;55696;52.138;5.444;2023-12-20T00:21:17;10.60;73.10
68719;DHT22;55696;52.138;5.444;2023-12-20T00:23:43;10.60;73.00
68719;DHT22;55696;52.138;5.444;2023-12-20T00:26:10;10.60;72.90
68719;DHT22;55696;52.138;5.444;2023-12-20T00:28:37;10.50;73.00
68719;DHT22;55696;52.138;5.444;2023-12-20T00:31:04;10.50;74.10
68719;DHT22;55696;52.138;5.444;2023-12-20T00:33:31;10.40;73.20
68719;DHT22;55696;52.138;5.444;2023-12-20T00:35:58;10.40;73.10
68719;DHT22;55696;52.138;5.444;2023-12-20T00:38:25;10.40;73.10
68719;DHT22;55696;52.138;5.444;2023-12-20T00:40:52;10.40;73.30
68719;DHT22;55696;52.138;5.444;2023-12-20T00:43:18;10.30;73.20
68719;DHT22;55696;52.138;5.444;2023-12-20T00:45:45;10.30;73.30
68719;DHT22;55696;52.138;5.444;2023-12-20T00:48:12;10.30;73.40
68719;DHT22;55696;52.138;5.444;2023-12-20T00:50:39;10.40;73.40
68719;DHT22;55696;52.138;5.444;2023-12-20T00:53:06;10.30;73.30
68719;DHT22;55696;52.138;5.444;2023-12-20T00:55:32;10.40;73.30
68719;DHT22;55696;52.138;5.444;2023-12-20T00:57:59;10.30;73.30
68719;DHT22;55696;52.138;5.444;2023-12-20T01:00:27;10.30;73.20
68719;DHT22;55696;52.138;5.444;2023-12-20T01:02:53;10.40;73.20
68719;DHT22;55696;52.138;5.444;2023-12-20T01:05:20;10.40;73.10
68719;DHT22;55696;52.138;5.444;2023-12-20T01:07:49;10.30;73.20
68719;DHT22;55696;52.138;5.444;2023-12-20T01:10:16;10.30;73.10
68719;DHT22;55696;52.138;5.444;2023-12-20T01:12:43;10.30;73.30
68719;DHT22;55696;52.138;5.444;2023-12-20T01:15:11;10.30;73.40
68719;DHT22;55696;52.138;5.444;2023-12-20T01:17:38;10.30;73.30
68719;DHT22;55696;52.138;5.444;2023-12-20T01:20:05;10.40;73.30
68719;DHT22;55696;52.138;5.444;2023-12-20T01:22:32;10.30;73.70
68719;DHT22;55696;52.138;5.444;2023-12-20T01:25:01;10.40;73.10
68719;DHT22;55696;52.138;5.444;2023-12-20T01:27:29;10.40;73.40
68719;DHT22;55696;52.138;5.444;2023-12-20T01:29:58;10.30;73.10
68719;DHT22;55696;52.138;5.444;2023-12-20T01:32:25;10.30;73.00
68719;DHT22;55696;52.138;5.444;2023-12-20T01:34:52;8.60;72.40
68719;DHT22;55696;52.138;5.444;2023-12-20T01:37:19;10.30;73.10
68719;DHT22;55696;52.138;5.444;2023-12-20T01:39:46;10.30;73.00
68719;DHT22;55696;52.138;5.444;2023-12-20T01:42:12;10.20;72.90
68719;DHT22;55696;52.138;5.444;2023-12-20T01:44:39;10.20;73.10
68719;DHT22;55696;52.138;5.444;2023-12-20T01:47:06;10.30;73.20
68719;DHT22;55696;52.138;5.444;2023-12-20T01:49:33;10.20;73.30
68719;DHT22;55696;52.138;5.444;2023-12-20T01:52:00;10.30;73.60
68719;DHT22;55696;52.138;5.444;2023-12-20T01:54:27;10.30;73.20
68719;DHT22;55696;52.138;5.444;2023-12-20T01:56:54;10.30;73.20
68719;DHT22;55696;52.138;5.444;2023-12-20T01:59:20;10.30;73.20
68719;DHT22;55696;52.138;5.444;2023-12-20T02:01:48;10.30;73.30
68719;DHT22;55696;52.138;5.444;2023-12-20T02:04:15;10.20;73.30
68719;DHT22;55696;52.138;5.444;2023-12-20T02:06:43;10.30;73.70
68719;DHT22;55696;52.138;5.444;2023-12-20T02:09:12;10.30;73.90
68719;DHT22;55696;52.138;5.444;2023-12-20T02:11:39;10.30;73.20
68719;DHT22;55696;52.138;5.444;2023-12-20T02:14:07;10.40;73.40
68719;DHT22;55696;52.138;5.444;2023-12-20T02:16:33;10.50;72.80
68719;DHT22;55696;52.138;5.444;2023-12-20T02:19:00;10.50;72.70
68719;DHT22;55696;52.138;5.444;2023-12-20T02:21:33;10.60;72.80
68719;DHT22;55696;52.138;5.444;2023-12-20T02:24:04;10.60;74.60
68719;DHT22;55696;52.138;5.444;2023-12-20T02:26:32;10.80;72.80
68719;DHT22;55696;52.138;5.444;2023-12-20T02:29:00;10.70;73.70
68719;DHT22;55696;52.138;5.444;2023-12-20T02:31:27;10.80;72.90
68719;DHT22;55696;52.138;5.444;2023-12-20T02:33:54;10.80;72.20
68719;DHT22;55696;52.138;5.444;2023-12-20T02:36:21;10.80;72.10
68719;DHT22;55696;52.138;5.444;2023-12-20T02:38:48;10.80;72.00
68719;DHT22;55696;52.138;5.444;2023-12-20T02:41:15;10.70;72.30
68719;DHT22;55696;52.138;5.444;2023-12-20T02:43:44;10.60;73.40
68719;DHT22;55696;52.138;5.444;2023-12-20T02:46:12;10.60;72.60
68719;DHT22;55696;52.138;5.444;2023-12-20T02:48:40;10.50;73.60
68719;DHT22;55696;52.138;5.444;2023-12-20T02:51:07;10.50;72.90
68719;DHT22;55696;52.138;5.444;2023-12-20T02:53:34;10.50;72.90
68719;DHT22;55696;52.138;5.444;2023-12-20T02:56:01;10.40;72.90
68719;DHT22;55696;52.138;5.444;2023-12-20T02:58:27;10.80;73.30
68719;DHT22;55696;52.138;5.444;2023-12-20T03:00:54;10.50;73.10
68719;DHT22;55696;52.138;5.444;2023-12-20T03:03:21;10.50;73.20
68719;DHT22;55696;52.138;5.444;2023-12-20T03:05:48;10.50;73.10
68719;DHT22;55696;52.138;5.444;2023-12-20T03:08:14;10.50;73.10
68719;DHT22;55696;52.138;5.444;2023-12-20T03:10:41;10.50;73.10
68719;DHT22;55696;52.138;5.444;2023-12-20T03:13:08;10.60;73.30
68719;DHT22;55696;52.138;5.444;2023-12-20T03:15:35;10.60;73.10
68719;DHT22;55696;52.138;5.444;2023-12-20T03:18:02;10.60;73.10
68719;DHT22;55696;52.138;5.444;2023-12-20T03:20:29;10.60;73.00
68719;DHT22;55696;52.138;5.444;2023-12-20T03:23:00;10.60;72.90
68719;DHT22;55696;52.138;5.444;2023-12-20T03:25:27;10.60;73.80
68719;DHT22;55696;52.138;5.444;2023-12-20T03:27:54;10.50;72.90
68719;DHT22;55696;52.138;5.444;2023-12-20T03:30:21;10.50;73.20
68719;DHT22;55696;52.138;5.444;2023-12-20T03:32:48;10.40;73.50
68719;DHT22;55696;52.138;5.444;2023-12-20T03:35:14;10.40;73.50
68719;DHT22;55696;52.138;5.444;2023-12-20T03:37:41;10.40;73.60
68719;DHT22;55696;52.138;5.444;2023-12-20T03:40:09;10.40;73.60
68719;DHT22;55696;52.138;5.444;2023-12-20T03:42:36;10.50;73.90
68719;DHT22;55696;52.138;5.444;2023-12-20T03:45:02;10.50;73.40
68719;DHT22;55696;52.138;5.444;2023-12-20T03:47:29;10.50;73.30
68719;DHT22;55696;52.138;5.444;2023-12-20T03:49:56;11.30;73.50
68719;DHT22;55696;52.138;5.444;2023-12-20T03:52:23;10.50;73.00
68719;DHT22;55696;52.138;5.444;2023-12-20T03:54:50;10.60;72.90
68719;DHT22;55696;52.138;5.444;2023-12-20T03:57:17;10.50;72.80
68719;DHT22;55696;52.138;5.444;2023-12-20T03:59:43;10.50;73.80
68719;DHT22;55696;52.138;5.444;2023-12-20T04:02:10;10.60;72.80
68719;DHT22;55696;52.138;5.444;2023-12-20T04:04:37;10.50;72.70
68719;DHT22;55696;52.138;5.444;2023-12-20T04:07:04;10.50;72.50
68719;DHT22;55696;52.138;5.444;2023-12-20T04:09:31;10.50;72.50
68719;DHT22;55696;52.138;5.444;2023-12-20T04:11:58;10.50;72.50
68719;DHT22;55696;52.138;5.444;2023-12-20T04:14:24;10.60;72.40
68719;DHT22;55696;52.138;5.444;2023-12-20T04:16:52;10.50;72.50
68719;DHT22;55696;52.138;5.444;2023-12-20T04:19:19;10.60;72.80
68719;DHT22;55696;52.138;5.444;2023-12-20T04:21:46;10.60;72.60
68719;DHT22;55696;52.138;5.444;2023-12-20T04:24:12;10.60;72.30
68719;DHT22;55696;52.138;5.444;2023-12-20T04:26:39;10.60;72.40
68719;DHT22;55696;52.138;5.444;2023-12-20T04:29:06;10.60;72.40
68719;DHT22;55696;52.138;5.444;2023-12-20T04:31:33;10.70;72.50
68719;DHT22;55696;52.138;5.444;2023-12-20T04:34:00;10.70;72.30
68719;DHT22;55696;52.138;5.444;2023-12-20T04:36:27;10.70;72.10
68719;DHT22;55696;52.138;5.444;2023-12-20T04:38:56;10.80;71.90
68719;DHT22;55696;52.138;5.444;2023-12-20T04:41:23;10.80;71.80
68719;DHT22;55696;52.138;5.444;2023-12-20T04:43:50;10.70;71.60
68719;DHT22;55696;52.138;5.444;2023-12-20T04:46:16;10.80;71.60
68719;DHT22;55696;52.138;5.444;2023-12-20T04:48:43;10.80;71.60
68719;DHT22;55696;52.138;5.444;2023-12-20T04:51:10;10.80;71.50
68719;DHT22;55696;52.138;5.444;2023-12-20T04:53:37;10.80;71.40
68719;DHT22;55696;52.138;5.444;2023-12-20T04:56:04;10.90;71.20
68719;DHT22;55696;52.138;5.444;2023-12-20T04:58:31;10.80;71.30
68719;DHT22;55696;52.138;5.444;2023-12-20T05:00:58;11.40;71.40
68719;DHT22;55696;52.138;5.444;2023-12-20T05:03:25;10.90;71.20
68719;DHT22;55696;52.138;5.444;2023-12-20T05:05:52;10.90;70.90
68719;DHT22;55696;52.138;5.444;2023-12-20T05:08:19;11.00;70.70
68719;DHT22;55696;52.138;5.444;2023-12-20T05:10:46;11.00;71.10
68719;DHT22;55696;52.138;5.444;2023-12-20T05:13:13;11.10;70.90
68719;DHT22;55696;52.138;5.444;2023-12-20T05:15:40;11.00;70.70
68719;DHT22;55696;52.138;5.444;2023-12-20T05:18:07;11.00;70.70
68719;DHT22;55696;52.138;5.444;2023-12-20T05:20:34;11.00;70.70
68719;DHT22;55696;52.138;5.444;2023-12-20T05:23:00;11.10;70.70
68719;DHT22;55696;52.138;5.444;2023-12-20T05:25:27;11.10;70.70
68719;DHT22;55696;52.138;5.444;2023-12-20T05:27:54;11.10;70.40
68719;DHT22;55696;52.138;5.444;2023-12-20T05:30:21;11.10;70.50
68719;DHT22;55696;52.138;5.444;2023-12-20T05:32:48;11.10;70.40
68719;DHT22;55696;52.138;5.444;2023-12-20T05:35:15;11.10;70.50
68719;DHT22;55696;52.138;5.444;2023-12-20T05:37:42;11.10;70.50
68719;DHT22;55696;52.138;5.444;2023-12-20T05:40:10;11.10;70.10
68719;DHT22;55696;52.138;5.444;2023-12-20T05:42:37;11.10;70.30
68719;DHT22;55696;52.138;5.444;2023-12-20T05:45:05;11.20;70.50
68719;DHT22;55696;52.138;5.444;2023-12-20T05:47:32;11.20;71.10
68719;DHT22;55696;52.138;5.444;2023-12-20T05:49:59;11.10;70.10
68719;DHT22;55696;52.138;5.444;2023-12-20T05:52:26;11.10;70.10
68719;DHT22;55696;52.138;5.444;2023-12-20T05:54:52;11.90;70.50
68719;DHT22;55696;52.138;5.444;2023-12-20T05:57:20;10.90;70.00
68719;DHT22;55696;52.138;5.444;2023-12-20T05:59:47;11.50;70.30
68719;DHT22;55696;52.138;5.444;2023-12-20T06:02:13;11.10;70.00
68719;DHT22;55696;52.138;5.444;2023-12-20T06:04:42;11.10;70.00
68719;DHT22;55696;52.138;5.444;2023-12-20T06:07:14;11.10;72.00
68719;DHT22;55696;52.138;5.444;2023-12-20T06:09:41;11.10;71.90
68719;DHT22;55696;52.138;5.444;2023-12-20T06:12:08;11.10;70.20
68719;DHT22;55696;52.138;5.444;2023-12-20T06:14:35;11.10;69.80
68719;DHT22;55696;52.138;5.444;2023-12-20T06:17:02;11.10;69.80
68719;DHT22;55696;52.138;5.444;2023-12-20T06:19:29;11.10;70.00
68719;DHT22;55696;52.138;5.444;2023-12-20T06:21:55;11.10;69.80
68719;DHT22;55696;52.138;5.444;2023-12-20T06:24:22;11.20;69.90
68719;DHT22;55696;52.138;5.444;2023-12-20T06:26:54;11.10;70.20
68719;DHT22;55696;52.138;5.444;2023-12-20T06:29:21;11.10;70.50
68719;DHT22;55696;52.138;5.444;2023-12-20T06:31:48;11.10;70.00
68719;DHT22;55696;52.138;5.444;2023-12-20T06:34:15;11.10;70.00
68719;DHT22;55696;52.138;5.444;2023-12-20T06:36:42;11.20;69.40
68719;DHT22;55696;52.138;5.444;2023-12-20T06:39:09;11.20;69.60
68719;DHT22;55696;52.138;5.444;2023-12-20T06:41:39;11.20;69.50
68719;DHT22;55696;52.138;5.444;2023-12-20T06:44:05;11.20;69.80
68719;DHT22;55696;52.138;5.444;2023-12-20T06:46:32;11.30;69.70
68719;DHT22;55696;52.138;5.444;2023-12-20T06:48:59;11.30;69.60
68719;DHT22;55696;52.138;5.444;2023-12-20T06:51:26;11.20;70.20
68719;DHT22;55696;52.138;5.444;2023-12-20T06:53:53;11.20;69.50
68719;DHT22;55696;52.138;5.444;2023-12-20T06:56:20;9.20;68.50
68719;DHT22;55696;52.138;5.444;2023-12-20T06:58:47;11.20;69.60
68719;DHT22;55696;52.138;5.444;2023-12-20T07:01:14;11.20;69.50
68719;DHT22;55696;52.138;5.444;2023-12-20T07:03:42;11.30;70.00
68719;DHT22;55696;52.138;5.444;2023-12-20T07:06:09;11.20;69.70
68719;DHT22;55696;52.138;5.444;2023-12-20T07:08:36;11.30;69.50
68719;DHT22;55696;52.138;5.444;2023-12-20T07:11:03;11.40;69.40
68719;DHT22;55696;52.138;5.444;2023-12-20T07:13:30;11.30;69.60
68719;DHT22;55696;52.138;5.444;2023-12-20T07:15:57;11.30;69.40
68719;DHT22;55696;52.138;5.444;2023-12-20T07:18:24;11.40;69.30
68719;DHT22;55696;52.138;5.444;2023-12-20T07:20:51;12.30;69.80
68719;DHT22;55696;52.138;5.444;2023-12-20T07:23:18;11.30;69.20
68719;DHT22;55696;52.138;5.444;2023-12-20T07:25:46;11.40;69.20
68719;DHT22;55696;52.138;5.444;2023-12-20T07:28:13;11.40;69.10
68719;DHT22;55696;52.138;5.444;2023-12-20T07:30:40;11.40;69.10
68719;DHT22;55696;52.138;5.444;2023-12-20T07:33:07;11.30;69.10
68719;DHT22;55696;52.138;5.444;2023-12-20T07:35:35;11.40;69.00
68719;DHT22;55696;52.138;5.444;2023-12-20T07:38:02;11.40;69.00
68719;DHT22;55696;52.138;5.444;2023-12-20T07:40:29;11.40;69.50
68719;DHT22;55696;52.138;5.444;2023-12-20T07:42:56;11.90;69.40
68719;DHT22;55696;52.138;5.444;2023-12-20T07:45:24;11.40;69.20
68719;DHT22;55696;52.138;5.444;2023-12-20T07:47:51;11.40;69.20
68719;DHT22;55696;52.138;5.444;2023-12-20T07:50:18;11.40;69.20
68719;DHT22;55696;52.138;5.444;2023-12-20T07:52:45;11.50;69.00
68719;DHT22;55696;52.138;5.444;2023-12-20T07:55:12;11.50;69.20
68719;DHT22;55696;52.138;5.444;2023-12-20T07:57:38;11.50;69.00
68719;DHT22;55696;52.138;5.444;2023-12-20T08:00:06;11.50;69.00
68719;DHT22;55696;52.138;5.444;2023-12-20T08:02:32;11.50;69.40
68719;DHT22;55696;52.138;5.444;2023-12-20T08:04:59;11.50;69.10
68719;DHT22;55696;52.138;5.444;2023-12-20T08:07:26;11.80;69.40
68719;DHT22;55696;52.138;5.444;2023-12-20T08:09:53;11.50;69.30
68719;DHT22;55696;52.138;5.444;2023-12-20T08:12:21;11.50;69.00
68719;DHT22;55696;52.138;5.444;2023-12-20T08:14:48;11.50;68.90
68719;DHT22;55696;52.138;5.444;2023-12-20T08:17:15;11.60;69.00
68719;DHT22;55696;52.138;5.444;2023-12-20T08:19:42;11.70;68.90
68719;DHT22;55696;52.138;5.444;2023-12-20T08:22:09;11.60;69.00
68719;DHT22;55696;52.138;5.444;2023-12-20T08:24:36;11.60;68.90
68719;DHT22;55696;52.138;5.444;2023-12-20T08:27:04;11.70;69.00
68719;DHT22;55696;52.138;5.444;2023-12-20T08:29:31;11.70;69.20
68719;DHT22;55696;52.138;5.444;2023-12-20T08:31:59;11.70;69.00
68719;DHT22;55696;52.138;5.444;2023-12-20T08:34:26;11.70;70.20
68719;DHT22;55696;52.138;5.444;2023-12-20T08:36:54;11.70;68.90
68719;DHT22;55696;52.138;5.444;2023-12-20T08:39:20;11.70;69.10
68719;DHT22;55696;52.138;5.444;2023-12-20T08:41:47;11.70;69.10
68719;DHT22;55696;52.138;5.444;2023-12-20T08:44:14;11.70;68.90
68719;DHT22;55696;52.138;5.444;2023-12-20T08:46:40;11.70;68.80
68719;DHT22;55696;52.138;5.444;2023-12-20T08:49:07;11.70;68.90
68719;DHT22;55696;52.138;5.444;2023-12-20T08:51:36;11.70;68.90
68719;DHT22;55696;52.138;5.444;2023-12-20T08:54:06;11.70;69.00
68719;DHT22;55696;52.138;5.444;2023-12-20T08:56:34;11.70;69.20
68719;DHT22;55696;52.138;5.444;2023-12-20T08:59:01;11.80;69.30
68719;DHT22;55696;52.138;5.444;2023-12-20T09:01:29;11.70;69.80
68719;DHT22;55696;52.138;5.444;2023-12-20T09:03:55;11.70;69.50
68719;DHT22;55696;52.138;5.444;2023-12-20T09:06:22;11.70;69.80
68719;DHT22;55696;52.138;5.444;2023-12-20T09:08:49;11.60;69.90
68719;DHT22;55696;52.138;5.444;2023-12-20T09:11:16;11.60;70.20
68719;DHT22;55696;52.138;5.444;2023-12-20T09:13:44;11.60;70.40
68719;DHT22;55696;52.138;5.444;2023-12-20T09:16:11;11.50;70.60
68719;DHT22;55696;52.138;5.444;2023-12-20T09:18:39;11.60;71.00
68719;DHT22;55696;52.138;5.444;2023-12-20T09:21:06;11.60;71.00
68719;DHT22;55696;52.138;5.444;2023-12-20T09:23:33;11.50;71.20
68719;DHT22;55696;52.138;5.444;2023-12-20T09:26:00;11.50;71.30
68719;DHT22;55696;52.138;5.444;2023-12-20T09:28:26;11.50;71.60
68719;DHT22;55696;52.138;5.444;2023-12-20T09:30:54;11.50;71.60
68719;DHT22;55696;52.138;5.444;2023-12-20T09:33:20;11.60;71.50
68719;DHT22;55696;52.138;5.444;2023-12-20T09:35:47;11.60;71.40
68719;DHT22;55696;52.138;5.444;2023-12-20T09:38:14;11.50;71.20
68719;DHT22;55696;52.138;5.444;2023-12-20T09:40:42;11.60;71.20
68719;DHT22;55696;52.138;5.444;2023-12-20T09:43:12;11.60;71.10
68719;DHT22;55696;52.138;5.444;2023-12-20T09:45:40;11.70;72.50
68719;DHT22;55696;52.138;5.444;2023-12-20T09:48:07;11.80;70.90
68719;DHT22;55696;52.138;5.444;2023-12-20T09:50:37;11.80;71.00
68719;DHT22;55696;52.138;5.444;2023-12-20T09:53:05;11.90;70.60
68719;DHT22;55696;52.138;5.444;2023-12-20T09:55:36;11.90;71.20
68719;DHT22;55696;52.138;5.444;2023-12-20T09:58:03;11.80;70.80
68719;DHT22;55696;52.138;5.444;2023-12-20T10:00:30;12.00;70.50
68719;DHT22;55696;52.138;5.444;2023-12-20T10:02:58;12.00;69.80
68719;DHT22;55696;52.138;5.444;2023-12-20T10:05:28;12.00;70.60
68719;DHT22;55696;52.138;5.444;2023-12-20T10:07:56;12.00;71.20
68719;DHT22;55696;52.138;5.444;2023-12-20T10:10:24;12.20;69.60
68719;DHT22;55696;52.138;5.444;2023-12-20T10:13:09;12.10;69.10
68719;DHT22;55696;52.138;5.444;2023-12-20T10:15:37;12.20;70.00
68719;DHT22;55696;52.138;5.444;2023-12-20T10:18:05;12.20;69.30
68719;DHT22;55696;52.138;5.444;2023-12-20T10:20:32;12.20;69.30
68719;DHT22;55696;52.138;5.444;2023-12-20T10:23:00;12.20;68.90
68719;DHT22;55696;52.138;5.444;2023-12-20T10:25:28;12.20;69.40
68719;DHT22;55696;52.138;5.444;2023-12-20T10:28:25;12.20;69.00
68719;DHT22;55696;52.138;5.444;2023-12-20T10:30:55;12.20;71.20
68719;DHT22;55696;52.138;5.444;2023-12-20T10:33:26;12.10;68.40
68719;DHT22;55696;52.138;5.444;2023-12-20T10:35:55;12.20;69.80
68719;DHT22;55696;52.138;5.444;2023-12-20T10:38:22;12.30;69.30
68719;DHT22;55696;52.138;5.444;2023-12-20T10:40:48;12.40;68.40
68719;DHT22;55696;52.138;5.444;2023-12-20T10:43:15;12.30;68.50
68719;DHT22;55696;52.138;5.444;2023-12-20T10:45:43;12.40;68.20
68719;DHT22;55696;52.138;5.444;2023-12-20T10:48:10;12.40;68.30
68719;DHT22;55696;52.138;5.444;2023-12-20T10:50:39;12.50;68.60
68719;DHT22;55696;52.138;5.444;2023-12-20T10:53:07;12.50;68.40
68719;DHT22;55696;52.138;5.444;2023-12-20T10:55:34;12.50;67.70
68719;DHT22;55696;52.138;5.444;2023-12-20T10:58:06;12.50;67.80
68719;DHT22;55696;52.138;5.444;2023-12-20T11:00:39;12.50;68.60
68719;DHT22;55696;52.138;5.444;2023-12-20T11:03:09;12.50;68.80
68719;DHT22;55696;52.138;5.444;2023-12-20T11:05:49;12.60;68.60
68719;DHT22;55696;52.138;5.444;2023-12-20T11:08:48;12.70;69.10
68719;DHT22;55696;52.138;5.444;2023-12-20T11:11:35;12.70;68.60
68719;DHT22;55696;52.138;5.444;2023-12-20T11:14:06;12.70;68.20
68719;DHT22;55696;52.138;5.444;2023-12-20T11:16:37;12.60;67.90
68719;DHT22;55696;52.138;5.444;2023-12-20T11:19:17;12.80;68.30
68719;DHT22;55696;52.138;5.444;2023-12-20T11:21:46;12.70;66.80
68719;DHT22;55696;52.138;5.444;2023-12-20T11:24:13;13.10;67.80
68719;DHT22;55696;52.138;5.444;2023-12-20T11:26:46;12.70;66.50
68719;DHT22;55696;52.138;5.444;2023-12-20T11:29:30;12.70;68.60
68719;DHT22;55696;52.138;5.444;2023-12-20T11:31:59;12.70;69.30
68719;DHT22;55696;52.138;5.444;2023-12-20T11:34:33;12.70;68.40
68719;DHT22;55696;52.138;5.444;2023-12-20T11:37:02;12.80;69.10
68719;DHT22;55696;52.138;5.444;2023-12-20T11:39:30;12.90;67.30
68719;DHT22;55696;52.138;5.444;2023-12-20T11:42:04;13.00;67.40
68719;DHT22;55696;52.138;5.444;2023-12-20T11:44:33;13.10;67.90
68719;DHT22;55696;52.138;5.444;2023-12-20T11:47:00;13.20;66.40
68719;DHT22;55696;52.138;5.444;2023-12-20T11:49:27;13.20;65.70
68719;DHT22;55696;52.138;5.444;2023-12-20T11:51:56;13.10;65.60
68719;DHT22;55696;52.138;5.444;2023-12-20T11:54:23;13.10;65.80
68719;DHT22;55696;52.138;5.444;2023-12-20T11:56:50;13.00;65.60
68719;DHT22;55696;52.138;5.444;2023-12-20T11:59:16;13.10;65.60
68719;DHT22;55696;52.138;5.444;2023-12-20T12:01:50;13.10;65.60
68719;DHT22;55696;52.138;5.444;2023-12-20T12:04:18;13.10;66.20
68719;DHT22;55696;52.138;5.444;2023-12-20T12:06:46;13.10;65.10
68719;DHT22;55696;52.138;5.444;2023-12-20T12:09:13;13.10;65.50
68719;DHT22;55696;52.138;5.444;2023-12-20T12:11:40;13.10;65.10
68719;DHT22;55696;52.138;5.444;2023-12-20T12:14:07;13.10;65.20
68719;DHT22;55696;52.138;5.444;2023-12-20T12:16:34;13.10;65.50
68719;DHT22;55696;52.138;5.444;2023-12-20T12:19:01;13.00;65.00
68719;DHT22;55696;52.138;5.444;2023-12-20T12:21:28;13.00;65.10
68719;DHT22;55696;52.138;5.444;2023-12-20T12:24:07;13.50;65.30
68719;DHT22;55696;52.138;5.444;2023-12-20T12:26:34;13.00;67.40
68719;DHT22;55696;52.138;5.444;2023-12-20T12:29:01;13.00;65.40
68719;DHT22;55696;52.138;5.444;2023-12-20T12:31:28;13.00;65.30
68719;DHT22;55696;52.138;5.444;2023-12-20T12:33:55;13.10;65.20
68719;DHT22;55696;52.138;5.444;2023-12-20T12:36:22;13.00;65.20
68719;DHT22;55696;52.138;5.444;2023-12-20T12:38:49;13.00;65.20
68719;DHT22;55696;52.138;5.444;2023-12-20T12:41:16;13.00;65.20
68719;DHT22;55696;52.138;5.444;2023-12-20T12:43:43;13.30;65.60
68719;DHT22;55696;52.138;5.444;2023-12-20T12:46:10;13.10;65.50
68719;DHT22;55696;52.138;5.444;2023-12-20T12:48:36;13.00;65.40
68719;DHT22;55696;52.138;5.444;2023-12-20T12:51:03;13.10;65.60
68719;DHT22;55696;52.138;5.444;2023-12-20T12:53:30;13.10;65.60
68719;DHT22;55696;52.138;5.444;2023-12-20T12:55:57;13.10;65.50
68719;DHT22;55696;52.138;5.444;2023-12-20T12:58:24;13.10;65.50
68719;DHT22;55696;52.138;5.444;2023-12-20T13:00:52;13.10;65.60
68719;DHT22;55696;52.138;5.444;2023-12-20T13:03:19;13.10;65.50
68719;DHT22;55696;52.138;5.444;2023-12-20T13:05:46;13.00;65.60
68719;DHT22;55696;52.138;5.444;2023-12-20T13:08:15;12.90;65.70
68719;DHT22;55696;52.138;5.444;2023-12-20T13:10:41;12.90;66.60
68719;DHT22;55696;52.138;5.444;2023-12-20T13:13:08;12.90;66.20
68719;DHT22;55696;52.138;5.444;2023-12-20T13:15:35;12.90;66.20
68719;DHT22;55696;52.138;5.444;2023-12-20T13:18:02;12.80;66.10
68719;DHT22;55696;52.138;5.444;2023-12-20T13:20:31;12.90;66.30
68719;DHT22;55696;52.138;5.444;2023-12-20T13:22:58;12.80;66.20
68719;DHT22;55696;52.138;5.444;2023-12-20T13:25:24;12.80;66.30
68719;DHT22;55696;52.138;5.444;2023-12-20T13:27:53;12.80;66.30
68719;DHT22;55696;52.138;5.444;2023-12-20T13:30:20;12.70;66.60
68719;DHT22;55696;52.138;5.444;2023-12-20T13:32:46;12.70;66.50
68719;DHT22;55696;52.138;5.444;2023-12-20T13:35:13;12.60;66.50
68719;DHT22;55696;52.138;5.444;2023-12-20T13:37:41;12.70;66.60
68719;DHT22;55696;52.138;5.444;2023-12-20T13:40:08;12.70;66.70
68719;DHT22;55696;52.138;5.444;2023-12-20T13:42:35;12.70;66.70
68719;DHT22;55696;52.138;5.444;2023-12-20T13:45:04;12.70;66.50
68719;DHT22;55696;52.138;5.444;2023-12-20T13:47:32;12.70;66.90
68719;DHT22;55696;52.138;5.444;2023-12-20T13:49:59;12.70;67.00
68719;DHT22;55696;52.138;5.444;2023-12-20T13:52:26;12.70;66.60
68719;DHT22;55696;52.138;5.444;2023-12-20T13:54:53;12.80;66.30
68719;DHT22;55696;52.138;5.444;2023-12-20T13:57:20;12.70;66.10
68719;DHT22;55696;52.138;5.444;2023-12-20T14:00:07;12.70;66.20
68719;DHT22;55696;52.138;5.444;2023-12-20T14:02:41;12.80;66.60
68719;DHT22;55696;52.138;5.444;2023-12-20T14:05:09;12.70;66.80
68719;DHT22;55696;52.138;5.444;2023-12-20T14:07:37;12.70;66.70
68719;DHT22;55696;52.138;5.444;2023-12-20T14:10:05;12.70;65.90
68719;DHT22;55696;52.138;5.444;2023-12-20T14:12:33;12.80;66.50
68719;DHT22;55696;52.138;5.444;2023-12-20T14:15:03;12.80;66.10
68719;DHT22;55696;52.138;5.444;2023-12-20T14:17:30;12.60;66.00
68719;DHT22;55696;52.138;5.444;2023-12-20T14:19:58;12.80;66.20
68719;DHT22;55696;52.138;5.444;2023-12-20T14:22:25;12.70;65.90
68719;DHT22;55696;52.138;5.444;2023-12-20T14:24:52;12.70;65.90
68719;DHT22;55696;52.138;5.444;2023-12-20T14:27:20;12.70;65.80
68719;DHT22;55696;52.138;5.444;2023-12-20T14:29:51;12.70;65.90
68719;DHT22;55696;52.138;5.444;2023-12-20T14:32:17;12.70;66.00
68719;DHT22;55696;52.138;5.444;2023-12-20T14:34:44;12.70;65.90
68719;DHT22;55696;52.138;5.444;2023-12-20T14:37:11;15.10;67.20
68719;DHT22;55696;52.138;5.444;2023-12-20T14:39:38;12.70;66.10
68719;DHT22;55696;52.138;5.444;2023-12-20T14:42:08;12.60;65.90
68719;DHT22;55696;52.138;5.444;2023-12-20T14:44:39;12.60;66.80
68719;DHT22;55696;52.138;5.444;2023-12-20T14:47:06;12.70;66.20
68719;DHT22;55696;52.138;5.444;2023-12-20T14:49:33;12.70;66.30
68719;DHT22;55696;52.138;5.444;2023-12-20T14:52:00;12.70;66.40
68719;DHT22;55696;52.138;5.444;2023-12-20T14:54:27;12.60;66.30
68719;DHT22;55696;52.138;5.444;2023-12-20T14:56:53;12.70;66.40
68719;DHT22;55696;52.138;5.444;2023-12-20T14:59:20;12.70;66.60
68719;DHT22;55696;52.138;5.444;2023-12-20T15:01:48;12.60;66.50
68719;DHT22;55696;52.138;5.444;2023-12-20T15:04:15;12.70;66.60
68719;DHT22;55696;52.138;5.444;2023-12-20T15:06:42;12.70;66.60
68719;DHT22;55696;52.138;5.444;2023-12-20T15:09:10;12.70;66.70
68719;DHT22;55696;52.138;5.444;2023-12-20T15:11:37;12.70;66.80
68719;DHT22;55696;52.138;5.444;2023-12-20T15:14:04;12.60;66.60
68719;DHT22;55696;52.138;5.444;2023-12-20T15:16:31;12.60;66.70
68719;DHT22;55696;52.138;5.444;2023-12-20T15:18:58;12.50;66.80
68719;DHT22;55696;52.138;5.444;2023-12-20T15:21:25;12.60;67.40
68719;DHT22;55696;52.138;5.444;2023-12-20T15:23:58;12.60;67.30
68719;DHT22;55696;52.138;5.444;2023-12-20T15:26:33;12.50;67.30
68719;DHT22;55696;52.138;5.444;2023-12-20T15:29:00;12.50;68.00
68719;DHT22;55696;52.138;5.444;2023-12-20T15:31:31;12.50;67.60
68719;DHT22;55696;52.138;5.444;2023-12-20T15:33:59;12.50;67.60